createdAt,value
2022-12-14T00:01:36.017Z,103.18
2022-12-14T00:04:02.784Z,102.97
2022-12-14T00:06:32.206Z,103.18
2022-12-14T00:09:01.440Z,102.28
2022-12-14T00:11:28.786Z,102.22
2022-12-14T00:13:59.021Z,102.07
2022-12-14T00:16:27.872Z,101.83
2022-12-14T00:18:56.569Z,101.60
2022-12-14T00:21:23.647Z,101.33
2022-12-14T00:23:51.965Z,101.45
2022-12-14T00:26:18.604Z,101.54
2022-12-14T00:28:46.452Z,101.11
2022-12-14T00:31:14.003Z,101.12
2022-12-14T00:33:41.033Z,100.67
2022-12-14T00:36:09.561Z,100.63
2022-12-14T00:38:36.600Z,100.12
2022-12-14T00:41:03.549Z,100.41
2022-12-14T00:43:30.610Z,100.30
2022-12-14T00:45:57.905Z,100.41
2022-12-14T00:48:26.284Z,100.23
2022-12-14T00:50:54.774Z,100.15
2022-12-14T00:53:22.173Z,100.21
2022-12-14T00:55:51.018Z,100.03
2022-12-14T00:58:20.286Z,100.31
2022-12-14T01:00:50.626Z,100.63
2022-12-14T01:03:17.538Z,100.67
2022-12-14T01:05:49.204Z,100.29
2022-12-14T01:08:16.264Z,100.41
2022-12-14T01:10:43.106Z,99.84
2022-12-14T01:13:11.431Z,99.75
2022-12-14T01:15:39.541Z,100.20
2022-12-14T01:18:06.235Z,100.41
2022-12-14T01:20:33.004Z,100.51
2022-12-14T01:22:59.664Z,100.24
2022-12-14T01:25:26.368Z,100.75
2022-12-14T01:27:53.053Z,101.07
2022-12-14T01:30:19.814Z,101.09
2022-12-14T01:32:47.403Z,101.47
2022-12-14T01:35:14.309Z,101.66
2022-12-14T01:37:41.210Z,101.74
2022-12-14T01:40:08.849Z,101.69
2022-12-14T01:42:37.194Z,101.83
2022-12-14T01:45:06.733Z,101.83
2022-12-14T01:47:44.855Z,101.51
2022-12-14T01:50:30.121Z,101.84
2022-12-14T01:53:02.269Z,102.15
2022-12-14T01:55:40.055Z,101.96
2022-12-14T01:58:20.104Z,101.64
2022-12-14T02:00:48.679Z,101.48
2022-12-14T02:03:20.500Z,101.35
2022-12-14T02:05:51.840Z,100.90
2022-12-14T02:08:20.717Z,101.47
2022-12-14T02:10:49.469Z,101.62
2022-12-14T02:13:46.306Z,102.06
2022-12-14T02:16:15.848Z,101.79
2022-12-14T02:18:42.647Z,102.14
2022-12-14T02:21:40.252Z,102.38
2022-12-14T02:24:27.510Z,102.38
2022-12-14T02:27:26.500Z,102.53
2022-12-14T02:30:10.854Z,102.42
2022-12-14T02:32:46.534Z,102.65
2022-12-14T02:35:25.239Z,102.82
2022-12-14T02:38:06.837Z,102.89
2022-12-14T02:40:35.425Z,102.99
2022-12-14T02:43:17.243Z,102.90
2022-12-14T02:45:49.178Z,103.13
2022-12-14T02:48:29.550Z,102.43
2022-12-14T02:51:15.036Z,102.17
2022-12-14T02:53:50.422Z,102.45
2022-12-14T02:56:22.484Z,102.25
2022-12-14T02:58:51.019Z,102.27
2022-12-14T03:01:22.223Z,102.69
2022-12-14T03:03:49.364Z,102.70
2022-12-14T03:06:25.989Z,102.44
2022-12-14T03:09:15.013Z,102.47
2022-12-14T03:11:56.143Z,102.73
2022-12-14T03:14:34.461Z,103.15
2022-12-14T03:17:13.218Z,102.76
2022-12-14T03:19:49.105Z,102.89
2022-12-14T03:22:59.153Z,103.23
2022-12-14T03:25:35.488Z,103.41
2022-12-14T03:28:26.632Z,103.59
2022-12-14T03:31:04.335Z,102.97
2022-12-14T03:33:32.990Z,103.21
2022-12-14T03:36:25.354Z,102.73
2022-12-14T03:38:55.940Z,102.16
2022-12-14T03:41:55.863Z,101.87
2022-12-14T03:44:49.657Z,102.29
2022-12-14T03:47:23.489Z,102.71
2022-12-14T03:50:04.565Z,102.68
2022-12-14T03:52:46.693Z,102.18
2022-12-14T03:55:20.593Z,102.76
2022-12-14T03:58:11.637Z,102.87
2022-12-14T04:00:57.974Z,103.09
2022-12-14T04:03:49.381Z,103.00
2022-12-14T04:06:32.316Z,102.69
2022-12-14T04:09:07.975Z,103.31
2022-12-14T04:12:00.839Z,103.60
2022-12-14T04:14:55.242Z,103.55
2022-12-14T04:17:49.437Z,103.74
2022-12-14T04:21:02.721Z,103.81
2022-12-14T04:23:55.600Z,104.15
2022-12-14T04:26:27.713Z,104.08
2022-12-14T04:29:22.035Z,103.73
2022-12-14T04:31:54.275Z,103.44
2022-12-14T04:34:24.662Z,103.87
2022-12-14T04:37:01.529Z,104.01
2022-12-14T04:39:52.324Z,103.89
2022-12-14T04:42:24.909Z,103.77
2022-12-14T04:44:56.700Z,103.55
2022-12-14T04:47:30.430Z,103.69
2022-12-14T04:50:12.872Z,103.64
2022-12-14T04:52:47.272Z,103.92
2022-12-14T04:55:46.576Z,103.11
2022-12-14T04:58:24.757Z,103.28
2022-12-14T05:01:02.521Z,103.34
2022-12-14T05:03:37.895Z,103.60
2022-12-14T05:06:46.129Z,103.87
2022-12-14T05:09:16.874Z,103.41
2022-12-14T05:11:56.320Z,103.59
2022-12-14T05:14:34.857Z,104.37
2022-12-14T05:17:09.010Z,103.54
2022-12-14T05:19:37.657Z,103.67
2022-12-14T05:22:08.338Z,104.19
2022-12-14T05:24:35.296Z,103.82
2022-12-14T05:27:02.009Z,103.08
2022-12-14T05:29:28.788Z,103.86
2022-12-14T05:31:55.457Z,103.58
2022-12-14T05:34:22.314Z,103.18
2022-12-14T05:36:49.355Z,103.26
2022-12-14T05:39:16.473Z,103.21
2022-12-14T05:41:43.666Z,102.98
2022-12-14T05:44:10.875Z,103.33
2022-12-14T05:46:37.665Z,103.73
2022-12-14T05:49:04.533Z,103.38
2022-12-14T05:51:31.569Z,103.73
2022-12-14T05:53:59.057Z,103.25
2022-12-14T05:56:26.034Z,103.86
2022-12-14T05:58:52.870Z,104.50
2022-12-14T06:01:20.289Z,104.09
2022-12-14T06:03:47.725Z,103.73
2022-12-14T06:06:15.104Z,103.66
2022-12-14T06:08:47.389Z,103.71
2022-12-14T06:11:19.665Z,103.94
2022-12-14T06:13:46.944Z,103.39
2022-12-14T06:16:24.977Z,103.62
2022-12-14T06:18:54.575Z,103.55
2022-12-14T06:21:31.420Z,103.19
2022-12-14T06:23:59.273Z,107.60
2022-12-14T06:26:27.896Z,103.27
2022-12-14T06:28:56.564Z,102.71
2022-12-14T06:31:28.582Z,102.95
2022-12-14T06:34:01.796Z,102.20
2022-12-14T06:36:34.186Z,101.95
2022-12-14T06:39:12.794Z,101.88
2022-12-14T06:41:40.585Z,102.67
2022-12-14T06:44:11.201Z,103.62
2022-12-14T06:46:38.861Z,103.63
2022-12-14T06:49:06.774Z,104.59
2022-12-14T06:51:39.409Z,104.82
2022-12-14T06:54:06.431Z,105.27
2022-12-14T06:56:33.645Z,105.23
2022-12-14T06:59:00.316Z,105.02
2022-12-14T07:01:27.555Z,104.63
2022-12-14T07:03:57.082Z,104.77
2022-12-14T07:06:25.790Z,104.65
2022-12-14T07:08:54.463Z,105.12
2022-12-14T07:11:21.779Z,105.42
2022-12-14T07:13:48.936Z,105.37
2022-12-14T07:16:21.973Z,105.28
2022-12-14T07:18:49.789Z,105.10
2022-12-14T07:21:18.942Z,105.25
2022-12-14T07:23:47.139Z,104.98
2022-12-14T07:26:17.058Z,105.43
2022-12-14T07:28:45.268Z,105.40
2022-12-14T07:31:15.645Z,105.53
2022-12-14T07:33:42.771Z,105.31
2022-12-14T07:36:18.298Z,105.43
2022-12-14T07:38:47.130Z,105.28
2022-12-14T07:41:22.820Z,105.02
2022-12-14T07:43:51.841Z,105.05
2022-12-14T07:46:23.348Z,104.96
2022-12-14T07:48:52.550Z,104.47
2022-12-14T07:51:23.842Z,103.79
2022-12-14T07:53:51.579Z,102.93
2022-12-14T07:56:26.637Z,102.90
2022-12-14T07:58:56.219Z,103.08
2022-12-14T08:01:28.820Z,102.78
2022-12-14T08:04:32.194Z,102.77
2022-12-14T08:06:58.935Z,102.83
2022-12-14T08:09:25.724Z,103.06
2022-12-14T08:11:52.549Z,103.29
2022-12-14T08:14:20.780Z,103.42
2022-12-14T08:16:48.848Z,103.25
2022-12-14T08:19:16.760Z,103.07
2022-12-14T08:21:45.330Z,102.66
2022-12-14T08:24:13.123Z,101.88
2022-12-14T08:26:40.258Z,101.15
2022-12-14T08:29:07.369Z,99.49
2022-12-14T08:31:34.412Z,98.50
2022-12-14T08:34:01.894Z,97.95
2022-12-14T08:36:30.742Z,96.75
2022-12-14T08:39:03.273Z,95.88
2022-12-14T08:41:30.478Z,95.33
2022-12-14T08:43:59.267Z,93.37
2022-12-14T08:46:28.656Z,91.62
2022-12-14T08:48:56.313Z,92.06
2022-12-14T08:51:24.808Z,91.53
2022-12-14T08:53:52.603Z,92.10
2022-12-14T08:56:22.915Z,90.90
2022-12-14T08:58:50.012Z,90.63
2022-12-14T09:01:19.996Z,90.29
2022-12-14T09:03:47.979Z,91.01
2022-12-14T09:06:24.364Z,91.11
2022-12-14T09:08:51.208Z,89.66
2022-12-14T09:11:19.611Z,88.78
2022-12-14T09:13:47.264Z,87.77
2022-12-14T09:16:17.802Z,86.18
2022-12-14T09:18:45.880Z,83.79
2022-12-14T09:21:13.410Z,81.01
2022-12-14T09:23:41.565Z,76.93
2022-12-14T09:26:12.411Z,75.38
2022-12-14T09:28:41.424Z,70.81
2022-12-14T09:31:11.738Z,71.28
2022-12-14T09:33:38.571Z,68.60
2022-12-14T09:36:16.982Z,66.76
2022-12-14T09:38:51.211Z,66.33
2022-12-14T09:41:28.103Z,65.25
2022-12-14T09:44:18.514Z,64.98
2022-12-14T09:46:51.685Z,64.34
2022-12-14T09:49:31.303Z,63.29
2022-12-14T09:52:04.141Z,63.04
2022-12-14T09:54:37.965Z,62.88
2022-12-14T09:57:13.750Z,62.14
2022-12-14T09:59:41.240Z,65.34
2022-12-14T10:02:32.879Z,65.07
2022-12-14T10:05:33.039Z,66.17
2022-12-14T10:08:14.236Z,65.67
2022-12-14T10:10:59.794Z,65.31
2022-12-14T10:13:51.121Z,65.86
2022-12-14T10:16:52.215Z,67.81
2022-12-14T10:19:33.988Z,67.64
2022-12-14T10:22:23.407Z,68.54
2022-12-14T10:24:58.225Z,70.42
2022-12-14T10:27:27.183Z,69.71
2022-12-14T10:30:04.446Z,69.93
2022-12-14T10:32:45.277Z,69.68
2022-12-14T10:35:16.582Z,69.85
2022-12-14T10:37:48.759Z,69.26
2022-12-14T10:40:35.019Z,66.54
2022-12-14T10:43:18.749Z,66.53
2022-12-14T10:46:23.518Z,65.38
2022-12-14T10:49:24.193Z,66.58
2022-12-14T10:51:57.052Z,63.37
2022-12-14T10:54:35.133Z,63.33
2022-12-14T10:57:02.182Z,62.92
2022-12-14T10:59:40.732Z,62.15
2022-12-14T11:02:21.518Z,61.96
2022-12-14T11:05:06.506Z,61.87
2022-12-14T11:07:33.460Z,61.40
2022-12-14T11:10:22.386Z,60.60
2022-12-14T11:13:00.558Z,59.96
2022-12-14T11:15:40.189Z,63.06
2022-12-14T11:18:29.842Z,66.74
2022-12-14T11:21:02.479Z,60.31
2022-12-14T11:23:30.748Z,58.99
2022-12-14T11:26:00.461Z,59.65
2022-12-14T11:28:37.956Z,62.43
2022-12-14T11:31:13.119Z,62.19
2022-12-14T11:33:41.790Z,62.03
2022-12-14T11:36:09.917Z,60.99
2022-12-14T11:38:36.864Z,62.79
2022-12-14T11:41:10.691Z,62.58
2022-12-14T11:43:38.909Z,63.23
2022-12-14T11:46:06.361Z,63.11
2022-12-14T11:48:38.431Z,63.55
2022-12-14T11:51:13.192Z,65.49
2022-12-14T11:53:40.739Z,65.56
2022-12-14T11:56:13.992Z,65.49
2022-12-14T11:58:50.178Z,65.48
2022-12-14T12:01:24.193Z,65.50
2022-12-14T12:03:59.314Z,66.55
2022-12-14T12:06:28.901Z,67.34
2022-12-14T12:09:01.646Z,68.66
2022-12-14T12:11:34.316Z,69.22
2022-12-14T12:14:05.510Z,69.52
2022-12-14T12:16:33.136Z,70.11
2022-12-14T12:19:12.956Z,69.87
2022-12-14T12:21:44.826Z,71.45
2022-12-14T12:24:38.754Z,71.66
2022-12-14T12:27:16.400Z,71.27
2022-12-14T12:29:55.221Z,71.90
2022-12-14T12:32:26.923Z,72.26
2022-12-14T12:35:41.598Z,72.11
2022-12-14T12:38:13.110Z,73.37
2022-12-14T12:41:03.739Z,73.51
2022-12-14T12:43:36.677Z,73.73
2022-12-14T12:46:15.422Z,73.73
2022-12-14T12:49:02.625Z,74.20
2022-12-14T12:51:34.984Z,73.20
2022-12-14T12:54:06.232Z,73.91
2022-12-14T12:57:03.245Z,74.14
2022-12-14T12:59:29.828Z,76.30
2022-12-14T13:02:09.137Z,74.30
2022-12-14T13:04:40.881Z,72.48
2022-12-14T13:07:26.025Z,71.74
2022-12-14T13:10:05.202Z,72.50
2022-12-14T13:12:50.110Z,70.82
2022-12-14T13:15:21.893Z,72.00
2022-12-14T13:17:53.719Z,72.81
2022-12-14T13:20:25.156Z,72.17
2022-12-14T13:22:52.702Z,73.05
2022-12-14T13:25:48.222Z,72.70
2022-12-14T13:28:27.419Z,73.07
2022-12-14T13:31:15.392Z,73.12
2022-12-14T13:34:23.284Z,73.10
2022-12-14T13:37:18.119Z,73.65
2022-12-14T13:40:06.803Z,73.56
2022-12-14T13:42:39.109Z,74.06
2022-12-14T13:45:14.002Z,76.06
2022-12-14T13:47:54.008Z,75.25
2022-12-14T13:50:37.534Z,75.52
2022-12-14T13:53:12.028Z,75.77
2022-12-14T13:55:46.927Z,76.41
2022-12-14T13:58:47.031Z,76.87
2022-12-14T14:01:35.163Z,76.76
2022-12-14T14:04:11.530Z,77.40
2022-12-14T14:06:44.078Z,77.78
2022-12-14T14:09:26.339Z,77.64
2022-12-14T14:12:02.205Z,77.42
2022-12-14T14:14:34.815Z,77.24
2022-12-14T14:17:14.915Z,78.16
2022-12-14T14:19:42.422Z,78.79
2022-12-14T14:22:23.320Z,79.36
2022-12-14T14:25:01.071Z,79.28
2022-12-14T14:27:49.933Z,79.75
2022-12-14T14:30:29.763Z,80.62
2022-12-14T14:33:19.894Z,81.17
2022-12-14T14:35:43.943Z,81.59
2022-12-14T14:38:30.310Z,81.68
2022-12-14T14:41:18.559Z,83.28
2022-12-14T14:44:19.602Z,84.30
2022-12-14T14:46:49.647Z,85.11
2022-12-14T14:49:25.423Z,85.37
2022-12-14T14:51:52.169Z,85.76
2022-12-14T14:55:06.442Z,86.52
2022-12-14T14:57:33.866Z,88.36
2022-12-14T15:00:02.401Z,88.63
2022-12-14T15:02:52.108Z,88.70
2022-12-14T15:08:23.672Z,89.16
2022-12-14T15:10:50.752Z,89.73
2022-12-14T15:13:24.988Z,89.14
2022-12-14T15:15:53.492Z,89.21
2022-12-14T15:18:24.674Z,89.12
2022-12-14T15:21:02.527Z,89.32
2022-12-14T15:23:42.156Z,89.58
2022-12-14T15:26:16.998Z,89.78
2022-12-14T15:28:48.393Z,89.09
2022-12-14T15:31:15.304Z,89.41
2022-12-14T15:33:43.621Z,90.56
2022-12-14T15:36:19.701Z,90.29
2022-12-14T15:38:56.780Z,91.09
2022-12-14T15:41:27.507Z,91.00
2022-12-14T15:43:59.738Z,90.73
2022-12-14T15:46:35.910Z,91.02
2022-12-14T15:49:08.240Z,90.89
2022-12-14T15:51:41.850Z,91.50
2022-12-14T15:54:17.502Z,91.37
2022-12-14T15:56:46.904Z,91.60
2022-12-14T15:59:25.960Z,91.65
2022-12-14T16:02:06.579Z,91.27
2022-12-14T16:04:33.654Z,91.38
2022-12-14T16:07:09.444Z,91.22
2022-12-14T16:09:51.432Z,91.50
2022-12-14T16:12:27.343Z,91.27
2022-12-14T16:15:00.931Z,91.09
2022-12-14T16:17:35.209Z,91.56
2022-12-14T16:20:23.621Z,92.27
2022-12-14T16:22:59.131Z,92.41
2022-12-14T16:25:25.893Z,92.37
2022-12-14T16:27:53.591Z,91.89
2022-12-14T16:30:22.550Z,92.33
2022-12-14T16:33:19.701Z,91.73
2022-12-14T16:35:57.428Z,92.38
2022-12-14T16:38:24.150Z,92.78
2022-12-14T16:41:00.464Z,95.47
2022-12-14T16:43:36.367Z,93.80
2022-12-14T16:46:03.149Z,92.76
2022-12-14T16:48:35.863Z,92.73
2022-12-14T16:51:38.017Z,93.81
2022-12-14T16:54:39.214Z,94.42
2022-12-14T16:57:09.253Z,94.24
2022-12-14T16:59:36.403Z,94.12
2022-12-14T17:02:04.250Z,95.01
2022-12-14T17:04:37.465Z,95.04
2022-12-14T17:07:04.455Z,94.78
2022-12-14T17:09:36.622Z,95.56
2022-12-14T17:12:13.884Z,95.61
2022-12-14T17:14:47.577Z,96.01
2022-12-14T17:17:26.784Z,96.73
2022-12-14T17:19:53.715Z,97.10
2022-12-14T17:22:31.020Z,96.52
2022-12-14T17:24:59.352Z,97.30
2022-12-14T17:27:26.862Z,97.42
2022-12-14T17:29:55.203Z,96.95
2022-12-14T17:32:24.000Z,97.26
2022-12-14T17:34:50.664Z,97.41
2022-12-14T17:37:21.154Z,98.03
2022-12-14T17:39:48.494Z,97.90
2022-12-14T17:42:18.030Z,98.06
2022-12-14T17:44:51.323Z,97.69
2022-12-14T17:47:18.126Z,96.86
2022-12-14T17:49:45.064Z,97.68
2022-12-14T17:52:28.776Z,96.95
2022-12-14T17:54:55.439Z,96.28
2022-12-14T17:57:24.469Z,97.19
2022-12-14T18:00:12.204Z,97.50
2022-12-14T18:02:39.956Z,97.93
2022-12-14T18:05:11.117Z,98.48
2022-12-14T18:07:37.918Z,99.42
2022-12-14T18:10:05.134Z,100.51
2022-12-14T18:12:41.438Z,100.77
2022-12-14T18:15:28.254Z,100.80
2022-12-14T18:17:55.710Z,101.57
2022-12-14T18:20:24.221Z,101.58
2022-12-14T18:22:53.795Z,101.10
2022-12-14T18:25:20.511Z,100.93
2022-12-14T18:27:47.293Z,100.83
2022-12-14T18:30:14.391Z,100.87
2022-12-14T18:32:41.105Z,100.61
2022-12-14T18:35:18.157Z,101.19
2022-12-14T18:37:45.308Z,101.35
2022-12-14T18:40:18.926Z,101.45
2022-12-14T18:42:46.113Z,100.52
2022-12-14T18:45:21.624Z,101.02
2022-12-14T18:47:48.902Z,101.22
2022-12-14T18:50:17.411Z,101.46
2022-12-14T18:52:45.029Z,101.35
2022-12-14T18:55:35.661Z,101.80
2022-12-14T18:58:03.170Z,102.24
2022-12-14T19:00:36.367Z,102.09
2022-12-14T19:03:04.556Z,102.38
2022-12-14T19:05:31.848Z,102.66
2022-12-14T19:08:00.100Z,102.57
2022-12-14T19:10:30.131Z,101.48
2022-12-14T19:12:57.942Z,103.08
2022-12-14T19:15:30.678Z,102.41
2022-12-14T19:17:57.463Z,102.93
2022-12-14T19:20:25.433Z,102.95
2022-12-14T19:22:52.278Z,103.45
2022-12-14T19:25:21.288Z,103.12
2022-12-14T19:30:37.272Z,102.11
2022-12-14T19:33:04.072Z,102.54
2022-12-14T19:35:31.775Z,106.56
2022-12-14T19:37:59.111Z,105.12
2022-12-14T19:40:26.317Z,107.57
2022-12-14T19:42:53.218Z,103.34
2022-12-14T19:45:20.195Z,103.58
2022-12-14T19:47:47.022Z,103.07
2022-12-14T19:50:14.966Z,103.14
2022-12-14T19:52:42.622Z,102.63
2022-12-14T19:55:09.933Z,102.75
2022-12-14T19:57:40.438Z,101.80
2022-12-14T20:00:09.297Z,102.06
2022-12-14T20:02:37.784Z,101.49
2022-12-14T20:05:06.478Z,101.60
2022-12-14T20:07:38.717Z,101.63
2022-12-14T20:10:09.247Z,102.06
2022-12-14T20:12:35.957Z,102.77
2022-12-14T20:15:02.952Z,103.47
2022-12-14T20:17:29.728Z,103.33
2022-12-14T20:19:56.501Z,104.03
2022-12-14T20:22:23.252Z,104.47
2022-12-14T20:24:50.297Z,105.27
2022-12-14T20:27:18.171Z,104.18
2022-12-14T20:29:44.886Z,105.44
2022-12-14T20:32:11.615Z,105.95
2022-12-14T20:34:39.121Z,105.07
2022-12-14T20:37:06.583Z,105.78
2022-12-14T20:39:33.223Z,106.01
2022-12-14T20:41:59.985Z,106.16
2022-12-14T20:44:26.654Z,105.59
2022-12-14T20:46:53.533Z,104.90
2022-12-14T20:49:21.402Z,104.89
2022-12-14T20:51:48.670Z,105.02
2022-12-14T20:54:18.876Z,105.05
2022-12-14T20:56:49.342Z,105.37
2022-12-14T20:59:17.387Z,105.28
2022-12-14T21:01:47.691Z,105.54
2022-12-14T21:04:17.096Z,105.41
2022-12-14T21:06:43.803Z,105.31
2022-12-14T21:09:11.918Z,105.31
2022-12-14T21:12:05.800Z,105.60
2022-12-14T21:14:34.818Z,105.90
2022-12-14T21:17:02.535Z,106.01
2022-12-14T21:19:29.559Z,106.53
2022-12-14T21:21:56.318Z,106.41
2022-12-14T21:24:53.165Z,106.61
2022-12-14T21:27:23.759Z,106.75
2022-12-14T21:29:50.801Z,107.16
2022-12-14T21:32:18.950Z,107.41
2022-12-14T21:34:46.525Z,108.15
2022-12-14T21:37:13.809Z,107.77
2022-12-14T21:39:40.809Z,107.43
2022-12-14T21:42:10.445Z,107.55
2022-12-14T21:44:37.589Z,106.60
2022-12-14T21:47:07.197Z,106.43
2022-12-14T21:49:36.554Z,106.36
2022-12-14T21:52:07.303Z,105.77
2022-12-14T21:54:34.972Z,105.36
2022-12-14T21:57:20.838Z,105.15
2022-12-14T21:59:47.608Z,105.25
2022-12-14T22:02:17.688Z,106.16
2022-12-14T22:04:46.774Z,105.83
2022-12-14T22:07:14.497Z,105.62
2022-12-14T22:09:41.410Z,105.66
2022-12-14T22:12:08.175Z,105.92
2022-12-14T22:14:35.520Z,105.90
2022-12-14T22:17:02.292Z,105.40
2022-12-14T22:19:29.127Z,105.30
2022-12-14T22:21:56.239Z,105.26
2022-12-14T22:24:24.089Z,105.17
2022-12-14T22:26:51.150Z,105.24
2022-12-14T22:29:19.337Z,105.50
2022-12-14T22:31:46.185Z,105.38
2022-12-14T22:34:19.380Z,105.77
2022-12-14T22:36:47.527Z,105.50
2022-12-14T22:39:14.661Z,105.21
2022-12-14T22:41:41.921Z,107.30
2022-12-14T22:44:11.129Z,106.87
2022-12-14T22:46:38.198Z,107.56
2022-12-14T22:49:05.069Z,108.56
2022-12-14T22:51:31.916Z,110.83
2022-12-14T22:53:58.690Z,108.20
2022-12-14T22:56:40.653Z,107.55
2022-12-14T22:59:18.639Z,107.46
2022-12-14T23:01:49.922Z,106.91
2022-12-14T23:04:17.926Z,106.38
2022-12-14T23:06:45.307Z,106.19
2022-12-14T23:09:30.799Z,106.14
2022-12-14T23:12:21.337Z,106.18
2022-12-14T23:15:07.334Z,106.53
2022-12-14T23:17:53.121Z,107.00
2022-12-14T23:20:38.400Z,106.86
2022-12-14T23:23:24.338Z,107.47
2022-12-14T23:26:09.634Z,107.59
2022-12-14T23:28:55.035Z,107.50
2022-12-14T23:31:40.398Z,107.64
2022-12-14T23:34:25.595Z,107.62
2022-12-14T23:37:13.845Z,108.52
2022-12-14T23:40:03.321Z,108.50
2022-12-14T23:42:48.645Z,108.37
2022-12-14T23:45:33.911Z,108.59
2022-12-14T23:48:19.332Z,108.65
2022-12-14T23:51:04.678Z,108.54
2022-12-14T23:53:50.456Z,109.03
2022-12-14T23:56:36.058Z,109.17
2022-12-14T23:59:24.875Z,108.85
